createdAt,value
2022-12-11T00:02:19.241Z,25.40
2022-12-11T00:05:06.834Z,25.90
2022-12-11T00:07:54.203Z,28.40
2022-12-11T00:10:49.485Z,24.73
2022-12-11T00:13:36.850Z,23.73
2022-12-11T00:16:26.966Z,27.13
2022-12-11T00:19:14.449Z,26.73
2022-12-11T00:21:56.637Z,24.50
2022-12-11T00:24:23.733Z,26.73
2022-12-11T00:27:14.487Z,28.13
2022-12-11T00:30:01.620Z,25.00
2022-12-11T00:32:51.194Z,26.48
2022-12-11T00:35:43.809Z,28.67
2022-12-11T00:38:31.159Z,23.60
2022-12-11T00:41:18.924Z,25.75
2022-12-11T00:44:06.147Z,26.38
2022-12-11T00:46:53.475Z,27.00
2022-12-11T00:49:42.881Z,28.05
2022-12-11T00:52:34.855Z,23.48
2022-12-11T00:55:22.156Z,21.17
2022-12-11T00:58:10.581Z,24.98
2022-12-11T01:01:06.306Z,21.63
2022-12-11T01:03:54.242Z,24.40
2022-12-11T01:06:41.276Z,19.90
2022-12-11T01:09:46.940Z,24.13
2022-12-11T01:12:34.025Z,12.13
2022-12-11T01:15:23.212Z,14.48
2022-12-11T01:18:13.170Z,24.25
2022-12-11T01:21:00.429Z,19.38
2022-12-11T01:23:50.597Z,25.33
2022-12-11T01:26:37.754Z,21.67
2022-12-11T01:29:24.934Z,21.75
2022-12-11T01:32:12.104Z,16.15
2022-12-11T01:34:59.305Z,24.67
2022-12-11T01:37:46.832Z,22.33
2022-12-11T01:40:34.105Z,19.40
2022-12-11T01:43:21.217Z,20.90
2022-12-11T01:46:08.491Z,23.25
2022-12-11T01:48:56.224Z,13.45
2022-12-11T01:52:10.191Z,15.82
2022-12-11T01:54:57.365Z,18.00
2022-12-11T01:57:46.872Z,19.52
2022-12-11T02:00:34.085Z,16.45
2022-12-11T02:03:21.444Z,15.20
2022-12-11T02:06:32.965Z,17.60
2022-12-11T02:09:25.249Z,15.85
2022-12-11T02:12:24.629Z,20.48
2022-12-11T02:15:20.708Z,11.95
2022-12-11T02:18:08.607Z,15.57
2022-12-11T02:21:13.190Z,19.45
2022-12-11T02:24:18.565Z,16.65
2022-12-11T02:27:35.018Z,19.30
2022-12-11T02:30:23.785Z,18.73
2022-12-11T02:33:12.907Z,16.38
2022-12-11T02:36:01.990Z,16.58
2022-12-11T02:38:53.398Z,15.85
2022-12-11T02:41:45.397Z,17.02
2022-12-11T02:44:35.001Z,16.05
2022-12-11T02:47:23.091Z,17.40
2022-12-11T02:50:13.673Z,16.70
2022-12-11T02:53:04.245Z,15.23
2022-12-11T02:55:56.881Z,16.63
2022-12-11T02:58:51.551Z,16.63
2022-12-11T03:01:42.080Z,16.38
2022-12-11T03:04:29.973Z,16.48
2022-12-11T03:07:23.945Z,17.30
2022-12-11T03:10:14.999Z,16.20
2022-12-11T03:13:02.989Z,15.13
2022-12-11T03:16:03.824Z,17.20
2022-12-11T03:19:24.677Z,16.50
2022-12-11T03:22:47.595Z,14.45
2022-12-11T03:25:43.777Z,16.73
2022-12-11T03:28:44.508Z,18.27
2022-12-11T03:31:42.202Z,18.70
2022-12-11T03:34:34.048Z,18.48
2022-12-11T03:37:22.988Z,20.95
2022-12-11T03:40:16.476Z,20.50
2022-12-11T03:43:05.721Z,17.92
2022-12-11T03:45:54.614Z,19.20
2022-12-11T03:48:45.590Z,16.48
2022-12-11T03:51:34.256Z,20.02
2022-12-11T03:54:23.021Z,22.45
2022-12-11T03:57:15.171Z,11.40
2022-12-11T04:00:05.332Z,22.00
2022-12-11T04:03:14.682Z,22.00
2022-12-11T04:06:02.688Z,21.58
2022-12-11T04:08:49.846Z,20.77
2022-12-11T04:11:37.173Z,20.58
2022-12-11T04:14:43.008Z,18.70
2022-12-11T04:17:50.936Z,22.35
2022-12-11T04:20:56.889Z,22.55
2022-12-11T04:24:02.843Z,23.90
2022-12-11T04:26:49.950Z,23.63
2022-12-11T04:29:37.280Z,20.30
2022-12-11T04:32:24.447Z,28.48
2022-12-11T04:35:13.156Z,30.90
2022-12-11T04:38:01.192Z,26.33
2022-12-11T04:40:48.206Z,26.38
2022-12-11T04:43:36.130Z,28.60
2022-12-11T04:46:24.860Z,26.05
2022-12-11T04:49:12.764Z,27.42
2022-12-11T04:51:59.923Z,33.15
2022-12-11T04:54:47.416Z,29.90
2022-12-11T04:57:35.091Z,34.17
2022-12-11T05:00:22.739Z,31.25
2022-12-11T05:03:10.273Z,28.00
2022-12-11T05:05:57.476Z,24.45
2022-12-11T05:08:45.403Z,28.63
2022-12-11T05:11:33.537Z,24.90
2022-12-11T05:14:21.040Z,31.00
2022-12-11T05:17:08.269Z,29.23
2022-12-11T05:19:55.490Z,31.55
2022-12-11T05:22:42.877Z,31.30
2022-12-11T05:25:30.009Z,22.15
2022-12-11T05:28:17.113Z,32.78
2022-12-11T05:31:12.080Z,29.33
2022-12-11T05:33:59.278Z,24.65
2022-12-11T05:36:46.470Z,35.53
2022-12-11T05:39:33.854Z,33.65
2022-12-11T05:42:28.548Z,31.00
2022-12-11T05:45:16.078Z,23.20
2022-12-11T05:48:03.705Z,27.27
2022-12-11T05:51:01.554Z,34.88
2022-12-11T05:53:50.714Z,38.35
2022-12-11T05:56:38.338Z,37.75
2022-12-11T05:59:25.531Z,41.50
2022-12-11T06:02:13.188Z,43.80
2022-12-11T06:05:00.529Z,41.28
2022-12-11T06:07:47.685Z,43.63
2022-12-11T06:10:34.889Z,37.25
2022-12-11T06:13:22.128Z,33.42
2022-12-11T06:16:10.125Z,30.25
2022-12-11T06:18:58.530Z,25.13
2022-12-11T06:21:45.939Z,39.25
2022-12-11T06:24:33.001Z,39.20
2022-12-11T06:27:20.223Z,35.72
2022-12-11T06:30:08.193Z,36.55
2022-12-11T06:32:55.991Z,31.10
2022-12-11T06:35:43.056Z,41.33
2022-12-11T06:38:30.277Z,45.95
2022-12-11T06:41:18.835Z,40.78
2022-12-11T06:44:05.913Z,39.03
2022-12-11T06:46:53.027Z,41.00
2022-12-11T06:49:40.268Z,36.78
2022-12-11T06:52:30.292Z,42.15
2022-12-11T06:55:17.842Z,35.20
2022-12-11T06:58:05.158Z,37.45
2022-12-11T07:00:52.317Z,40.13
2022-12-11T07:03:39.448Z,33.78
2022-12-11T07:06:28.497Z,36.65
2022-12-11T07:09:15.741Z,32.63
2022-12-11T07:12:04.098Z,32.45
2022-12-11T07:14:51.124Z,33.25
2022-12-11T07:17:38.345Z,37.35
2022-12-11T07:20:25.385Z,42.60
2022-12-11T07:23:12.509Z,36.38
2022-12-11T07:26:03.620Z,39.97
2022-12-11T07:31:37.933Z,34.33
2022-12-11T07:34:25.053Z,35.22
2022-12-11T07:37:12.176Z,42.38
2022-12-11T07:39:59.358Z,33.47
2022-12-11T07:42:46.552Z,35.13
2022-12-11T07:45:33.821Z,26.23
2022-12-11T07:48:21.050Z,28.27
2022-12-11T07:51:15.204Z,34.05
2022-12-11T07:54:16.616Z,34.28
2022-12-11T07:57:04.853Z,38.47
2022-12-11T07:59:53.495Z,35.00
2022-12-11T08:02:40.590Z,42.45
2022-12-11T08:05:27.737Z,28.48
2022-12-11T08:08:14.960Z,41.35
2022-12-11T08:11:07.284Z,40.17
2022-12-11T08:13:54.843Z,37.85
2022-12-11T08:16:44.108Z,24.63
2022-12-11T08:19:31.361Z,35.70
2022-12-11T08:22:18.506Z,40.42
2022-12-11T08:25:06.149Z,38.20
2022-12-11T08:27:53.254Z,46.92
2022-12-11T08:30:40.518Z,37.58
2022-12-11T08:33:27.642Z,44.97
2022-12-11T08:36:17.330Z,43.95
2022-12-11T08:39:04.536Z,37.67
2022-12-11T08:41:51.732Z,37.33
2022-12-11T08:44:38.982Z,40.20
2022-12-11T08:47:26.482Z,35.38
2022-12-11T08:50:13.622Z,26.67
2022-12-11T08:53:00.776Z,31.75
2022-12-11T08:55:48.001Z,30.35
2022-12-11T08:58:35.800Z,28.58
2022-12-11T09:01:26.149Z,22.45
2022-12-11T09:04:13.332Z,35.22
2022-12-11T09:07:00.565Z,31.60
2022-12-11T09:09:48.270Z,22.77
2022-12-11T09:12:36.315Z,25.25
2022-12-11T09:15:23.658Z,36.92
2022-12-11T09:18:11.676Z,32.65
2022-12-11T09:21:13.856Z,34.97
2022-12-11T09:24:01.759Z,35.75
2022-12-11T09:26:49.334Z,36.20
2022-12-11T09:29:36.501Z,33.85
2022-12-11T09:32:23.669Z,41.38
2022-12-11T09:35:11.402Z,42.63
2022-12-11T09:37:58.660Z,51.72
2022-12-11T09:40:45.735Z,47.33
2022-12-11T09:43:47.367Z,47.22
2022-12-11T09:46:36.494Z,39.70
2022-12-11T09:49:26.398Z,37.38
2022-12-11T09:52:21.343Z,38.00
2022-12-11T09:55:32.669Z,39.65
2022-12-11T10:01:43.756Z,32.22
2022-12-11T10:04:59.159Z,42.17
2022-12-11T10:08:08.326Z,42.28
2022-12-11T10:11:14.432Z,15.40
2022-12-11T10:14:04.931Z,34.20
2022-12-11T10:16:57.898Z,31.55
2022-12-11T10:19:48.944Z,27.63
2022-12-11T10:22:36.425Z,25.10
2022-12-11T10:25:31.306Z,36.25
2022-12-11T10:28:20.618Z,34.78
2022-12-11T10:31:30.491Z,31.20
2022-12-11T10:34:42.820Z,29.52
2022-12-11T10:37:29.958Z,26.17
2022-12-11T10:40:19.936Z,32.53
2022-12-11T10:43:07.193Z,36.97
2022-12-11T10:45:54.712Z,38.10
2022-12-11T10:48:56.093Z,29.48
2022-12-11T10:54:35.231Z,37.38
2022-12-11T10:57:29.682Z,32.45
2022-12-11T11:00:32.102Z,28.45
2022-12-11T11:03:27.616Z,28.30
2022-12-11T11:06:20.119Z,28.52
2022-12-11T11:09:28.980Z,26.58
2022-12-11T11:12:27.663Z,29.00
2022-12-11T11:15:29.268Z,21.80
2022-12-11T11:18:26.421Z,34.10
2022-12-11T11:21:22.603Z,29.20
2022-12-11T11:24:27.438Z,22.52
2022-12-11T11:27:35.671Z,25.40
2022-12-11T11:30:30.872Z,19.00
2022-12-11T11:33:20.722Z,36.40
2022-12-11T11:36:20.239Z,21.65
2022-12-11T11:39:25.796Z,16.52
2022-12-11T11:42:23.295Z,17.73
2022-12-11T11:45:22.857Z,30.67
2022-12-11T11:48:24.986Z,30.25
2022-12-11T11:51:34.925Z,21.00
2022-12-11T11:54:34.506Z,24.10
2022-12-11T11:57:37.477Z,35.30
2022-12-11T12:00:33.335Z,42.42
2022-12-11T12:03:24.571Z,33.78
2022-12-11T12:06:36.027Z,20.90
2022-12-11T12:09:36.682Z,27.67
2022-12-11T12:12:35.933Z,32.45
2022-12-11T12:15:31.541Z,27.10
2022-12-11T12:18:40.373Z,32.85
2022-12-11T12:21:35.508Z,35.38
2022-12-11T12:24:51.016Z,36.42
2022-12-11T12:27:53.055Z,39.25
2022-12-11T12:31:05.703Z,33.50
2022-12-11T12:34:09.921Z,41.08
2022-12-11T12:37:22.943Z,35.53
2022-12-11T12:40:28.927Z,29.88
2022-12-11T12:43:19.099Z,43.35
2022-12-11T12:46:24.375Z,49.78
2022-12-11T12:49:22.324Z,59.92
2022-12-11T12:52:20.824Z,41.30
2022-12-11T12:55:14.315Z,40.50
2022-12-11T12:58:07.503Z,49.35
2022-12-11T13:01:06.388Z,39.20
2022-12-11T13:04:03.202Z,33.10
2022-12-11T13:06:50.681Z,36.00
2022-12-11T13:09:37.864Z,27.38
2022-12-11T13:12:44.213Z,42.00
2022-12-11T13:15:34.524Z,24.33
2022-12-11T13:18:39.166Z,30.95
2022-12-11T13:21:35.134Z,24.60
2022-12-11T13:24:22.478Z,26.92
2022-12-11T13:27:30.118Z,18.92
2022-12-11T13:30:24.054Z,36.00
2022-12-11T13:33:17.851Z,35.28
2022-12-11T13:36:16.717Z,14.40
2022-12-11T13:39:17.927Z,27.10
2022-12-11T13:42:07.658Z,24.08
2022-12-11T13:44:55.331Z,35.65
2022-12-11T13:47:42.633Z,31.55
2022-12-11T13:50:32.993Z,23.50
2022-12-11T13:53:21.379Z,33.10
2022-12-11T13:56:17.458Z,26.67
2022-12-11T13:59:04.654Z,23.83
2022-12-11T14:01:55.190Z,18.73
2022-12-11T14:04:42.751Z,22.92
2022-12-11T14:07:33.739Z,18.65
2022-12-11T14:10:29.582Z,24.13
2022-12-11T14:13:25.099Z,27.35
2022-12-11T14:16:23.945Z,34.38
2022-12-11T14:19:18.099Z,32.92
2022-12-11T14:22:07.973Z,22.25
2022-12-11T14:25:02.779Z,32.95
2022-12-11T14:27:52.354Z,27.92
2022-12-11T14:30:47.082Z,19.35
2022-12-11T14:33:40.543Z,34.70
2022-12-11T14:36:29.265Z,27.00
2022-12-11T14:39:28.660Z,25.10
2022-12-11T14:42:23.185Z,26.98
2022-12-11T14:45:43.120Z,14.73
2022-12-11T14:48:36.897Z,24.10
2022-12-11T14:51:28.694Z,28.65
2022-12-11T14:54:27.994Z,27.92
2022-12-11T14:57:21.583Z,36.58
2022-12-11T15:00:09.812Z,31.52
2022-12-11T15:03:17.425Z,26.10
2022-12-11T15:06:25.835Z,35.70
2022-12-11T15:09:26.461Z,34.97
2022-12-11T15:12:17.026Z,27.33
2022-12-11T15:15:06.904Z,28.33
2022-12-11T15:17:54.055Z,22.77
2022-12-11T15:20:41.336Z,28.30
2022-12-11T15:23:29.669Z,34.22
2022-12-11T15:26:16.931Z,24.10
2022-12-11T15:29:06.709Z,15.38
2022-12-11T15:32:18.943Z,23.25
2022-12-11T15:35:52.108Z,26.85
2022-12-11T15:38:42.066Z,23.77
2022-12-11T15:41:33.210Z,30.48
2022-12-11T15:47:14.011Z,28.40
2022-12-11T15:50:08.033Z,26.92
2022-12-11T15:52:56.562Z,31.23
2022-12-11T15:55:43.858Z,33.95
2022-12-11T15:58:31.027Z,27.95
2022-12-11T16:01:18.236Z,28.55
2022-12-11T16:04:05.600Z,30.20
2022-12-11T16:06:53.253Z,28.30
2022-12-11T16:09:40.434Z,28.17
2022-12-11T16:12:27.566Z,27.27
2022-12-11T16:15:22.823Z,29.52
2022-12-11T16:18:13.853Z,28.02
2022-12-11T16:21:05.429Z,27.80
2022-12-11T16:23:52.536Z,25.02
2022-12-11T16:26:39.751Z,23.30
2022-12-11T16:29:26.906Z,24.38
2022-12-11T16:32:14.343Z,26.20
2022-12-11T16:35:01.731Z,22.13
2022-12-11T16:37:50.734Z,24.33
2022-12-11T16:40:38.388Z,27.67
2022-12-11T16:43:25.538Z,26.60
2022-12-11T16:46:12.660Z,25.20
2022-12-11T16:48:59.935Z,23.52
2022-12-11T16:51:49.227Z,27.15
2022-12-11T16:54:36.780Z,37.25
2022-12-11T16:57:24.211Z,31.55
2022-12-11T17:00:14.598Z,27.27
2022-12-11T17:03:01.889Z,25.63
2022-12-11T17:05:49.083Z,27.90
2022-12-11T17:08:36.910Z,23.95
2022-12-11T17:11:26.221Z,23.65
2022-12-11T17:14:13.387Z,23.70
2022-12-11T17:17:00.586Z,21.85
2022-12-11T17:19:47.719Z,29.38
2022-12-11T17:22:35.457Z,33.55
2022-12-11T17:25:22.571Z,31.70
2022-12-11T17:28:10.541Z,28.23
2022-12-11T17:30:58.036Z,23.58
2022-12-11T17:33:46.734Z,24.98
2022-12-11T17:36:34.103Z,23.90
2022-12-11T17:39:21.157Z,23.75
2022-12-11T17:42:08.368Z,21.05
2022-12-11T17:44:55.493Z,26.52
2022-12-11T17:47:42.639Z,30.45
2022-12-11T17:50:29.760Z,25.42
2022-12-11T17:53:18.450Z,31.17
2022-12-11T17:56:08.501Z,31.98
2022-12-11T17:58:55.656Z,29.55
2022-12-11T18:01:42.866Z,32.08
2022-12-11T18:04:30.143Z,43.15
2022-12-11T18:07:19.240Z,60.70
2022-12-11T18:10:06.591Z,51.17
2022-12-11T18:12:53.714Z,36.17
2022-12-11T18:15:41.917Z,35.55
2022-12-11T18:18:30.116Z,34.83
2022-12-11T18:21:21.575Z,37.83
2022-12-11T18:24:10.592Z,35.83
2022-12-11T18:26:59.196Z,30.83
2022-12-11T18:29:46.264Z,34.42
2022-12-11T18:32:33.480Z,28.13
2022-12-11T18:35:20.715Z,29.15
2022-12-11T18:38:08.866Z,36.83
2022-12-11T18:40:56.244Z,31.45
2022-12-11T18:43:43.800Z,29.83
2022-12-11T18:46:31.537Z,30.63
2022-12-11T18:49:19.690Z,30.42
2022-12-11T18:52:06.930Z,33.80
2022-12-11T18:54:54.088Z,32.00
2022-12-11T18:57:41.324Z,29.25
2022-12-11T19:00:28.604Z,32.92
2022-12-11T19:03:15.769Z,28.45
2022-12-11T19:06:11.399Z,28.38
2022-12-11T19:09:00.194Z,30.92
2022-12-11T19:11:47.792Z,33.45
2022-12-11T19:14:34.962Z,32.53
2022-12-11T19:17:22.087Z,34.13
2022-12-11T19:20:40.182Z,34.85
2022-12-11T19:23:18.191Z,45.90
2022-12-11T19:26:09.573Z,34.47
2022-12-11T19:29:00.195Z,31.58
2022-12-11T19:31:48.083Z,31.15
2022-12-11T19:34:35.835Z,35.90
2022-12-11T19:37:23.061Z,47.63
2022-12-11T19:40:10.614Z,31.45
2022-12-11T19:42:57.755Z,38.15
2022-12-11T19:45:45.898Z,31.27
2022-12-11T19:48:35.015Z,40.50
2022-12-11T19:51:34.664Z,35.35
2022-12-11T19:54:21.997Z,34.22
2022-12-11T19:57:10.380Z,27.23
2022-12-11T19:59:57.766Z,34.47
2022-12-11T20:02:45.082Z,35.55
2022-12-11T20:05:32.242Z,34.85
2022-12-11T20:08:43.630Z,36.70
2022-12-11T20:11:26.630Z,27.90
2022-12-11T20:14:19.473Z,24.05
2022-12-11T20:17:12.506Z,29.15
2022-12-11T20:20:00.617Z,30.88
2022-12-11T20:22:47.846Z,31.27
2022-12-11T20:25:35.114Z,31.10
2022-12-11T20:28:22.410Z,23.75
2022-12-11T20:31:18.053Z,35.78
2022-12-11T20:34:07.856Z,29.50
2022-12-11T20:36:56.327Z,29.85
2022-12-11T20:39:43.747Z,32.83
2022-12-11T20:42:31.203Z,26.90
2022-12-11T20:45:18.541Z,22.17
2022-12-11T20:48:05.852Z,22.75
2022-12-11T20:50:53.086Z,25.58
2022-12-11T20:53:41.372Z,23.23
2022-12-11T20:56:30.914Z,28.23
2022-12-11T20:59:18.290Z,31.65
2022-12-11T21:02:05.786Z,32.28
2022-12-11T21:04:53.196Z,31.15
2022-12-11T21:07:40.384Z,35.47
2022-12-11T21:10:27.601Z,38.47
2022-12-11T21:13:14.813Z,32.60
2022-12-11T21:16:07.017Z,32.75
2022-12-11T21:18:55.712Z,41.38
2022-12-11T21:21:43.438Z,43.15
2022-12-11T21:24:31.415Z,34.55
2022-12-11T21:27:18.725Z,46.17
2022-12-11T21:30:06.565Z,28.92
2022-12-11T21:32:53.672Z,26.52
2022-12-11T21:35:40.848Z,30.13
2022-12-11T21:38:29.198Z,30.98
2022-12-11T21:41:22.490Z,28.92
2022-12-11T21:47:18.722Z,30.65
2022-12-11T21:50:06.037Z,28.60
2022-12-11T21:52:53.185Z,33.78
2022-12-11T21:55:41.816Z,31.65
2022-12-11T21:58:28.980Z,34.45
2022-12-11T22:01:32.033Z,34.75
2022-12-11T22:04:19.211Z,37.28
2022-12-11T22:07:06.660Z,37.60
2022-12-11T22:09:53.825Z,35.15
2022-12-11T22:12:40.970Z,34.25
2022-12-11T22:15:28.309Z,40.20
2022-12-11T22:18:15.397Z,32.45
2022-12-11T22:21:02.528Z,37.10
2022-12-11T22:23:49.845Z,40.78
2022-12-11T22:26:37.157Z,30.65
2022-12-11T22:29:24.303Z,36.03
2022-12-11T22:32:11.411Z,33.90
2022-12-11T22:34:58.637Z,59.55
2022-12-11T22:37:45.792Z,49.00
2022-12-11T22:40:34.086Z,49.47
2022-12-11T22:43:22.138Z,50.88
2022-12-11T22:46:14.982Z,46.78
2022-12-11T22:49:02.162Z,42.90
2022-12-11T22:51:50.403Z,40.40
2022-12-11T22:54:41.945Z,34.22
2022-12-11T22:57:29.074Z,40.13
2022-12-11T23:00:16.836Z,35.88
2022-12-11T23:03:04.058Z,40.20
2022-12-11T23:05:51.299Z,40.20
2022-12-11T23:08:39.130Z,38.38
2022-12-11T23:11:29.942Z,35.70
2022-12-11T23:14:18.821Z,30.48
2022-12-11T23:17:06.005Z,36.70
2022-12-11T23:19:53.128Z,37.28
2022-12-11T23:22:40.328Z,37.40
2022-12-11T23:25:28.093Z,33.45
2022-12-11T23:28:15.204Z,32.83
2022-12-11T23:31:02.531Z,37.85
2022-12-11T23:33:49.757Z,38.03
2022-12-11T23:36:36.847Z,33.85
2022-12-11T23:39:24.049Z,33.08
2022-12-11T23:42:11.188Z,30.77
2022-12-11T23:44:58.255Z,31.02
2022-12-11T23:47:45.605Z,27.38
2022-12-11T23:50:32.951Z,33.10
2022-12-11T23:53:20.081Z,33.78
2022-12-11T23:56:10.984Z,28.58
2022-12-11T23:58:58.261Z,33.75
